Travetal — 5BCT2 — position and weather

sailwx.info

Track history (hours):
 
Tides and Currents Weather Stations Pressure Air Temp Water Temp Dewpoint Dewpoint Depression Visibility Wind Speed Wind Dir Waves Ship Positions

Travetal

Last reported at 2017-Oct-20 12:30 UTC. Time now 2017-Oct-20 12:54 UTC.
Position N 59°30' E 024°58'.

Length 89 m; draft 4.6 m.

Type: Ship. MMSI: 210974000.

Date/timePositionNaut miles runAvg speedWind from/ knotsBaromVisibWave heightAir tempDewpointWater temp
2017-Oct-20 12:30N 59°30' E 024°58'0 0.0
2017-Oct-20 12:00N 59°30' E 024°58'0 0.0
2017-Oct-20 11:30N 59°30' E 024°58'0 0.0
2017-Oct-20 11:00N 59°30' E 024°58'0 0.0
2017-Oct-20 10:30N 59°30' E 024°58'0 0.0
2017-Oct-20 10:00N 59°30' E 024°58'0 0.0
2017-Oct-20 09:30N 59°30' E 024°58'0 0.0
2017-Oct-20 09:00N 59°30' E 024°58'0 0.0
2017-Oct-20 08:30N 59°30' E 024°58'0 0.0
2017-Oct-20 08:00N 59°30' E 024°58'0 0.0
2017-Oct-20 07:30N 59°30' E 024°58'0 0.0
2017-Oct-20 07:00N 59°30' E 024°58'0 0.0
2017-Oct-20 06:30N 59°30' E 024°58'0 0.0
2017-Oct-20 06:00N 59°30' E 024°58'0 0.0
2017-Oct-20 05:30N 59°30' E 024°58'0 0.0
2017-Oct-20 05:00N 59°30' E 024°58'0 0.0
2017-Oct-20 04:30N 59°30' E 024°58'0 0.0
2017-Oct-20 04:00N 59°30' E 024°58'0 0.0
2017-Oct-20 03:30N 59°30' E 024°58'0 0.0
2017-Oct-20 03:00N 59°30' E 024°58'0 0.0
2017-Oct-20 02:30N 59°30' E 024°58'0 0.0
2017-Oct-20 02:00N 59°30' E 024°58'0 0.0
2017-Oct-20 01:30N 59°30' E 024°58'1 2.1
2017-Oct-20 01:00N 59°31' E 024°58'510.0
2017-Oct-20 00:30N 59°35' E 024°53'4 8.5
2017-Oct-20 00:00N 59°37' E 024°46'4 8.2
2017-Oct-19 23:30N 59°38' E 024°38'4 8.3
2017-Oct-19 23:00N 59°38' E 024°30'4 7.8
2017-Oct-19 22:30N 59°38' E 024°22'84 9.3
2017-Oct-19 13:28N 59°30' E 021°37'510.2
2017-Oct-19 13:00N 59°31' E 021°28'610.3
2017-Oct-19 12:23N 59°33' E 021°16'4910.2
2017-Oct-19 07:35N 59°46' E 019°43'210.0
2017-Oct-19 07:25N 59°47' E 019°40'410.4
2017-Oct-19 07:00N 59°51' E 019°35'510.4
2017-Oct-19 06:30N 59°55' E 019°29'510.2
2017-Oct-19 06:00N 59°58' E 019°22'510.1
2017-Oct-19 05:29N 60°02' E 019°15'510.2
2017-Oct-19 05:00N 60°06' E 019°09'510.3
2017-Oct-19 04:30N 60°10' E 019°02'510.2
2017-Oct-19 04:00N 60°15' E 019°01'  
2017-Oct-15 20:35N 60°21' E 019°01'287 9.0
2017-Oct-14 12:33N 55°50' E 016°03'1 9.3
2017-Oct-14 12:29N 55°50' E 016°02'35 9.6
2017-Oct-14 08:49N 55°33' E 015°08'310.0
2017-Oct-14 08:30N 55°31' E 015°03'6 9.9
2017-Oct-14 07:56N 55°28' E 014°55'410.1
2017-Oct-14 07:30N 55°26' E 014°48'510.2
2017-Oct-14 07:00N 55°23' E 014°40'510.2
2017-Oct-14 06:30N 55°19' E 014°34'510.2
2017-Oct-14 06:00N 55°16' E 014°28'510.2
2017-Oct-14 05:28N 55°12' E 014°22'510.1
2017-Oct-14 04:59N 55°08' E 014°16'710.2
2017-Oct-14 04:19N 55°03' E 014°09'410.3
2017-Oct-14 03:56N 55°00' E 014°03'510.9
2017-Oct-14 03:28N 54°59' E 013°54'3610.5
2017-Oct-14 00:03N 54°47' E 012°56'110.9
2017-Oct-14 00:00N 54°47' E 012°55'510.1
2017-Oct-13 23:30N 54°45' E 012°47'1810.5
2017-Oct-13 21:47N 54°34' E 012°22'310.5
2017-Oct-13 21:30N 54°31' E 012°18'510.5
2017-Oct-13 21:00N 54°27' E 012°13'510.2
2017-Oct-13 20:30N 54°25' E 012°05'510.2
2017-Oct-13 20:00N 54°25' E 011°57'11 9.9
2017-Oct-13 18:51N 54°27' E 011°38'4 9.9
2017-Oct-13 18:29N 54°29' E 011°32'510.5
2017-Oct-13 18:00N 54°31' E 011°24'5 9.9
2017-Oct-13 17:31N 54°33' E 011°17'5 9.4
2017-Oct-13 17:00N 54°35' E 011°09'5 9.9
2017-Oct-13 16:30N 54°34' E 011°00'510.7
2017-Oct-13 16:00N 54°34' E 010°51'510.5
2017-Oct-13 15:30N 54°33' E 010°42'510.3
2017-Oct-13 15:00N 54°32' E 010°33'27 6.6
2017-Oct-13 10:52N 54°22' E 009°50'3 7.2
2017-Oct-13 10:30N 54°21' E 009°46'1 2.8
2017-Oct-13 10:00N 54°20' E 009°44'4 7.3
2017-Oct-13 09:30N 54°17' E 009°40'3 6.4
2017-Oct-13 09:01N 54°15' E 009°37'3 6.4
2017-Oct-13 08:31N 54°12' E 009°34'4 8.2
2017-Oct-13 08:01N 54°11' E 009°27'4 8.7
2017-Oct-13 07:30N 54°08' E 009°21'5 8.6
2017-Oct-13 06:59N 54°04' E 009°19'4 8.7
2017-Oct-13 06:30N 53°60' E 009°18'4 8.6
2017-Oct-13 06:00N 53°56' E 009°13'4 7.9
2017-Oct-13 05:30N 53°54' E 009°09'0 0.4
2017-Oct-13 05:00N 53°53' E 009°08'2 3.3
2017-Oct-13 04:30N 53°53' E 009°06'0 0.9
2017-Oct-13 04:00N 53°53' E 009°05'510.7
2017-Oct-13 03:30N 53°51' E 008°57'612.5
2017-Oct-13 03:00N 53°51' E 008°46'122 9.1
2017-Oct-12 13:39N 53°33' E 005°23'3 9.9
2017-Oct-12 13:18N 53°32' E 005°18'310.0
2017-Oct-12 12:59N 53°31' E 005°13'510.1
2017-Oct-12 12:30N 53°29' E 005°05'510.1
2017-Oct-12 12:00N 53°27' E 004°57'33 9.5
2017-Oct-12 08:31N 53°01' E 004°23'010.4
2017-Oct-12 08:28N 53°01' E 004°23'510.1
2017-Oct-12 08:00N 52°57' E 004°19'510.1
2017-Oct-12 07:30N 52°52' E 004°15'510.1
2017-Oct-12 07:01N 52°48' E 004°10'5 9.9
2017-Oct-12 06:31N 52°44' E 004°05'5 9.9
2017-Oct-12 06:00N 52°40' E 003°60'5 9.7
2017-Oct-12 05:28N 52°37' E 003°54'64 7.6
2017-Oct-11 21:04N 51°36' E 003°24'111.0
2017-Oct-11 20:58N 51°35' E 003°24'511.2
2017-Oct-11 20:30N 51°30' E 003°28'510.8
2017-Oct-11 20:00N 51°26' E 003°34'5 9.2
2017-Oct-11 19:30N 51°26' E 003°42'510.8
2017-Oct-11 19:00N 51°21' E 003°47'2 4.5
2017-Oct-11 18:30N 51°20' E 003°49'0 0.7
2017-Oct-11 18:00N 51°19' E 003°49'1 2.7
2017-Oct-11 17:30N 51°18' E 003°50'3 5.3
2017-Oct-11 17:01N 51°15' E 003°50'5 0.3
2017-Oct-11 00:00N 51°11' E 003°48'0 0.0
2017-Oct-10 23:30N 51°11' E 003°48'0 0.0
2017-Oct-10 23:00N 51°11' E 003°48'0 0.0
2017-Oct-10 22:27N 51°11' E 003°48'0 0.0
2017-Oct-10 22:00N 51°11' E 003°48'0 0.0
2017-Oct-10 21:30N 51°11' E 003°48'0 0.0
2017-Oct-10 21:00N 51°11' E 003°48'0 0.0
2017-Oct-10 20:30N 51°11' E 003°48'0 0.0
2017-Oct-10 20:00N 51°11' E 003°48'0 0.0
2017-Oct-10 19:30N 51°11' E 003°48'0 0.0
2017-Oct-10 19:00N 51°11' E 003°48'0 0.0
2017-Oct-10 18:30N 51°11' E 003°48'0 0.0
2017-Oct-10 18:00N 51°11' E 003°48'0 0.0
2017-Oct-10 17:30N 51°11' E 003°48'0 0.0
2017-Oct-10 17:00N 51°11' E 003°48'0 0.0
2017-Oct-10 16:30N 51°11' E 003°48'0 0.1
2017-Oct-10 16:00N 51°10' E 003°48'1 2.7
2017-Oct-10 15:28N 51°09' E 003°47'0 0.0
2017-Oct-10 15:00N 51°09' E 003°47'0 0.0
2017-Oct-10 14:00N 51°09' E 003°47'0 0.0
2017-Oct-10 13:30N 51°09' E 003°47'0 0.0
2017-Oct-10 12:57N 51°09' E 003°47'0 0.0
2017-Oct-10 12:30N 51°09' E 003°47'  
Track history (hours):
 
Tides and Currents Weather Stations Pressure Air Temp Water Temp Dewpoint Dewpoint Depression Visibility Wind Speed Wind Dir Waves Ship Positions

Travetal

Last reported at 2017-Oct-20 12:30 UTC. Time now 2017-Oct-20 12:54 UTC.
Position N 59°30' E 024°58'.

Length 89 m; draft 4.6 m.

Type: Ship. MMSI: 210974000.

Date/timePositionNaut miles runAvg speedWind from/ knotsBaromVisibWave heightAir tempDewpointWater temp
2017-Oct-20 12:30N 59°30' E 024°58'0 0.0
2017-Oct-20 12:00N 59°30' E 024°58'0 0.0
2017-Oct-20 11:30N 59°30' E 024°58'0 0.0
2017-Oct-20 11:00N 59°30' E 024°58'0 0.0
2017-Oct-20 10:30N 59°30' E 024°58'0 0.0
2017-Oct-20 10:00N 59°30' E 024°58'0 0.0
2017-Oct-20 09:30N 59°30' E 024°58'0 0.0
2017-Oct-20 09:00N 59°30' E 024°58'0 0.0
2017-Oct-20 08:30N 59°30' E 024°58'0 0.0
2017-Oct-20 08:00N 59°30' E 024°58'0 0.0
2017-Oct-20 07:30N 59°30' E 024°58'0 0.0
2017-Oct-20 07:00N 59°30' E 024°58'0 0.0
2017-Oct-20 06:30N 59°30' E 024°58'0 0.0
2017-Oct-20 06:00N 59°30' E 024°58'0 0.0
2017-Oct-20 05:30N 59°30' E 024°58'0 0.0
2017-Oct-20 05:00N 59°30' E 024°58'0 0.0
2017-Oct-20 04:30N 59°30' E 024°58'0 0.0
2017-Oct-20 04:00N 59°30' E 024°58'0 0.0
2017-Oct-20 03:30N 59°30' E 024°58'0 0.0
2017-Oct-20 03:00N 59°30' E 024°58'0 0.0
2017-Oct-20 02:30N 59°30' E 024°58'0 0.0
2017-Oct-20 02:00N 59°30' E 024°58'0 0.0
2017-Oct-20 01:30N 59°30' E 024°58'1 2.1
2017-Oct-20 01:00N 59°31' E 024°58'510.0
2017-Oct-20 00:30N 59°35' E 024°53'4 8.5
2017-Oct-20 00:00N 59°37' E 024°46'4 8.2
2017-Oct-19 23:30N 59°38' E 024°38'4 8.3
2017-Oct-19 23:00N 59°38' E 024°30'4 7.8
2017-Oct-19 22:30N 59°38' E 024°22'84 9.3
2017-Oct-19 13:28N 59°30' E 021°37'510.2
2017-Oct-19 13:00N 59°31' E 021°28'610.3
2017-Oct-19 12:23N 59°33' E 021°16'4910.2
2017-Oct-19 07:35N 59°46' E 019°43'210.0
2017-Oct-19 07:25N 59°47' E 019°40'410.4
2017-Oct-19 07:00N 59°51' E 019°35'510.4
2017-Oct-19 06:30N 59°55' E 019°29'510.2
2017-Oct-19 06:00N 59°58' E 019°22'510.1
2017-Oct-19 05:29N 60°02' E 019°15'510.2
2017-Oct-19 05:00N 60°06' E 019°09'510.3
2017-Oct-19 04:30N 60°10' E 019°02'510.2
2017-Oct-19 04:00N 60°15' E 019°01'  
2017-Oct-15 20:35N 60°21' E 019°01'287 9.0
2017-Oct-14 12:33N 55°50' E 016°03'1 9.3
2017-Oct-14 12:29N 55°50' E 016°02'35 9.6
2017-Oct-14 08:49N 55°33' E 015°08'310.0
2017-Oct-14 08:30N 55°31' E 015°03'6 9.9
2017-Oct-14 07:56N 55°28' E 014°55'410.1
2017-Oct-14 07:30N 55°26' E 014°48'510.2
2017-Oct-14 07:00N 55°23' E 014°40'510.2
2017-Oct-14 06:30N 55°19' E 014°34'510.2
2017-Oct-14 06:00N 55°16' E 014°28'510.2
2017-Oct-14 05:28N 55°12' E 014°22'510.1
2017-Oct-14 04:59N 55°08' E 014°16'710.2
2017-Oct-14 04:19N 55°03' E 014°09'410.3
2017-Oct-14 03:56N 55°00' E 014°03'510.9
2017-Oct-14 03:28N 54°59' E 013°54'3610.5
2017-Oct-14 00:03N 54°47' E 012°56'110.9
2017-Oct-14 00:00N 54°47' E 012°55'510.1
2017-Oct-13 23:30N 54°45' E 012°47'1810.5
2017-Oct-13 21:47N 54°34' E 012°22'310.5
2017-Oct-13 21:30N 54°31' E 012°18'510.5
2017-Oct-13 21:00N 54°27' E 012°13'510.2
2017-Oct-13 20:30N 54°25' E 012°05'510.2
2017-Oct-13 20:00N 54°25' E 011°57'11 9.9
2017-Oct-13 18:51N 54°27' E 011°38'4 9.9
2017-Oct-13 18:29N 54°29' E 011°32'510.5
2017-Oct-13 18:00N 54°31' E 011°24'5 9.9
2017-Oct-13 17:31N 54°33' E 011°17'5 9.4
2017-Oct-13 17:00N 54°35' E 011°09'5 9.9
2017-Oct-13 16:30N 54°34' E 011°00'510.7
2017-Oct-13 16:00N 54°34' E 010°51'510.5
2017-Oct-13 15:30N 54°33' E 010°42'510.3
2017-Oct-13 15:00N 54°32' E 010°33'27 6.6
2017-Oct-13 10:52N 54°22' E 009°50'3 7.2
2017-Oct-13 10:30N 54°21' E 009°46'1 2.8
2017-Oct-13 10:00N 54°20' E 009°44'4 7.3
2017-Oct-13 09:30N 54°17' E 009°40'3 6.4
2017-Oct-13 09:01N 54°15' E 009°37'3 6.4
2017-Oct-13 08:31N 54°12' E 009°34'4 8.2
2017-Oct-13 08:01N 54°11' E 009°27'4 8.7
2017-Oct-13 07:30N 54°08' E 009°21'5 8.6
2017-Oct-13 06:59N 54°04' E 009°19'4 8.7
2017-Oct-13 06:30N 53°60' E 009°18'4 8.6
2017-Oct-13 06:00N 53°56' E 009°13'4 7.9
2017-Oct-13 05:30N 53°54' E 009°09'0 0.4
2017-Oct-13 05:00N 53°53' E 009°08'2 3.3
2017-Oct-13 04:30N 53°53' E 009°06'0 0.9
2017-Oct-13 04:00N 53°53' E 009°05'510.7
2017-Oct-13 03:30N 53°51' E 008°57'612.5
2017-Oct-13 03:00N 53°51' E 008°46'122 9.1
2017-Oct-12 13:39N 53°33' E 005°23'3 9.9
2017-Oct-12 13:18N 53°32' E 005°18'310.0
2017-Oct-12 12:59N 53°31' E 005°13'510.1
2017-Oct-12 12:30N 53°29' E 005°05'510.1
2017-Oct-12 12:00N 53°27' E 004°57'33 9.5
2017-Oct-12 08:31N 53°01' E 004°23'010.4
2017-Oct-12 08:28N 53°01' E 004°23'510.1
2017-Oct-12 08:00N 52°57' E 004°19'510.1
2017-Oct-12 07:30N 52°52' E 004°15'510.1
2017-Oct-12 07:01N 52°48' E 004°10'5 9.9
2017-Oct-12 06:31N 52°44' E 004°05'5 9.9
2017-Oct-12 06:00N 52°40' E 003°60'5 9.7
2017-Oct-12 05:28N 52°37' E 003°54'64 7.6
2017-Oct-11 21:04N 51°36' E 003°24'111.0
2017-Oct-11 20:58N 51°35' E 003°24'511.2
2017-Oct-11 20:30N 51°30' E 003°28'510.8
2017-Oct-11 20:00N 51°26' E 003°34'5 9.2
2017-Oct-11 19:30N 51°26' E 003°42'510.8
2017-Oct-11 19:00N 51°21' E 003°47'2 4.5
2017-Oct-11 18:30N 51°20' E 003°49'0 0.7
2017-Oct-11 18:00N 51°19' E 003°49'1 2.7
2017-Oct-11 17:30N 51°18' E 003°50'3 5.3
2017-Oct-11 17:01N 51°15' E 003°50'5 0.3
2017-Oct-11 00:00N 51°11' E 003°48'0 0.0
2017-Oct-10 23:30N 51°11' E 003°48'0 0.0
2017-Oct-10 23:00N 51°11' E 003°48'0 0.0
2017-Oct-10 22:27N 51°11' E 003°48'0 0.0
2017-Oct-10 22:00N 51°11' E 003°48'0 0.0
2017-Oct-10 21:30N 51°11' E 003°48'0 0.0
2017-Oct-10 21:00N 51°11' E 003°48'0 0.0
2017-Oct-10 20:30N 51°11' E 003°48'0 0.0
2017-Oct-10 20:00N 51°11' E 003°48'0 0.0
2017-Oct-10 19:30N 51°11' E 003°48'0 0.0
2017-Oct-10 19:00N 51°11' E 003°48'0 0.0
2017-Oct-10 18:30N 51°11' E 003°48'0 0.0
2017-Oct-10 18:00N 51°11' E 003°48'0 0.0
2017-Oct-10 17:30N 51°11' E 003°48'0 0.0
2017-Oct-10 17:00N 51°11' E 003°48'0 0.0
2017-Oct-10 16:30N 51°11' E 003°48'0 0.1
2017-Oct-10 16:00N 51°10' E 003°48'1 2.7
2017-Oct-10 15:28N 51°09' E 003°47'0 0.0
2017-Oct-10 15:00N 51°09' E 003°47'0 0.0
2017-Oct-10 14:00N 51°09' E 003°47'0 0.0
2017-Oct-10 13:30N 51°09' E 003°47'0 0.0
2017-Oct-10 12:57N 51°09' E 003°47'0 0.0
2017-Oct-10 12:30N 51°09' E 003°47'  

Dump ship's entire track history